Time;durP1;ratioP1;P1;durP2;ratioP2;P2;SDS_P1;SDS_P2;PMS_P1;PMS_P2;Temp;Humidity;BMP_temperature;BMP_pressure;BME280_temperature;BME280_humidity;BME280_pressure;Samples;Min_cycle;Max_cycle;Signal;HPM_P1;HPM_P2
2022/04/03 00:01:19;;;;;;;32.35;17.40;;;-0.10;99.90;;;;;;4910398;29;20052;-74
2022/04/03 00:03:45;;;;;;;31.45;16.83;;;-0.10;99.90;;;;;;4911429;29;20059;-74
2022/04/03 00:06:12;;;;;;;32.42;16.05;;;-0.10;99.90;;;;;;4910568;29;20047;-74
2022/04/03 00:08:40;;;;;;;31.65;16.23;;;-0.10;99.90;;;;;;4915523;29;20044;-73
2022/04/03 00:11:06;;;;;;;31.27;16.70;;;-0.10;99.90;;;;;;4904804;29;20036;-74
2022/04/03 00:13:33;;;;;;;27.73;16.55;;;-0.10;99.90;;;;;;4915440;29;20044;-73
2022/04/03 00:16:00;;;;;;;32.38;17.38;;;-0.10;99.90;;;;;;4910046;29;20050;-74
2022/04/03 00:18:27;;;;;;;30.77;16.60;;;-0.20;99.90;;;;;;4913949;29;20448;-74
2022/04/03 00:20:54;;;;;;;26.55;13.32;;;-0.20;99.90;;;;;;4909181;29;20063;-73
2022/04/03 00:23:23;;;;;;;34.08;18.00;;;-0.20;99.90;;;;;;4915357;29;20100;-72
2022/04/03 00:25:51;;;;;;;34.80;17.45;;;-0.30;99.90;;;;;;4911503;29;20047;-74
2022/04/03 00:28:22;;;;;;;35.25;19.10;;;-0.30;99.90;;;;;;4915223;29;20052;-74
2022/04/03 00:30:49;;;;;;;30.63;17.50;;;-0.30;99.90;;;;;;4909494;29;20036;-73
2022/04/03 00:33:15;;;;;;;34.80;18.08;;;-0.30;99.90;;;;;;4915172;29;20599;-74
2022/04/03 00:35:42;;;;;;;39.75;19.65;;;-0.30;99.90;;;;;;4915284;29;20112;-74
2022/04/03 00:38:09;;;;;;;42.25;19.27;;;-0.20;99.90;;;;;;4915424;29;20044;-74
2022/04/03 00:40:36;;;;;;;26.98;14.48;;;-0.20;99.90;;;;;;4912679;29;20040;-73
2022/04/03 00:43:03;;;;;;;;;;;-0.20;99.90;;;;;;4915765;29;20051;-74
2022/04/03 00:45:30;;;;;;;37.85;16.90;;;-0.10;99.90;;;;;;4915496;29;19955;-73
2022/04/03 00:47:57;;;;;;;38.17;18.75;;;-0.20;99.90;;;;;;4913001;29;20068;-73
2022/04/03 00:50:25;;;;;;;41.65;18.95;;;-0.20;99.90;;;;;;4897955;29;20044;-73
2022/04/03 00:52:52;;;;;;;28.13;14.05;;;-0.10;99.90;;;;;;4915390;29;20095;-73
2022/04/03 00:55:19;;;;;;;24.38;13.63;;;-0.20;99.90;;;;;;4915284;29;20052;-75
2022/04/03 00:57:46;;;;;;;32.00;15.70;;;-0.20;99.90;;;;;;4913517;29;20080;-72
2022/04/03 01:00:13;;;;;;;26.27;14.18;;;-0.30;99.90;;;;;;4914636;29;20055;-75
2022/04/03 01:02:41;;;;;;;38.45;19.23;;;-0.30;99.90;;;;;;4915403;29;20189;-74
2022/04/03 01:05:09;;;;;;;40.10;20.35;;;-0.20;99.90;;;;;;4913604;29;20056;-75
2022/04/03 01:07:36;;;;;;;38.35;18.20;;;-0.20;99.90;;;;;;4915109;29;20048;-74
2022/04/03 01:10:03;;;;;;;;;;;-0.20;99.90;;;;;;4915181;29;20055;-74
2022/04/03 01:12:30;;;;;;;34.50;17.73;;;-0.30;99.90;;;;;;4909993;29;20312;-74
2022/04/03 01:15:16;;;;;;;34.38;17.70;;;-0.30;99.90;;;;;;4914983;29;20572;-74
2022/04/03 01:17:43;;;;;;;38.65;19.05;;;-0.30;99.90;;;;;;4915101;29;20045;-74
2022/04/03 01:20:11;;;;;;;42.15;21.15;;;-0.20;99.90;;;;;;4914738;29;20444;-75
2022/04/03 01:22:37;;;;;;;;;;;-0.10;99.90;;;;;;4911875;29;20048;-74
2022/04/03 01:25:05;;;;;;;32.45;17.55;;;-0.10;99.90;;;;;;4914882;29;19923;-74
2022/04/03 01:27:32;;;;;;;37.35;19.02;;;-0.10;99.90;;;;;;4917896;29;20044;-74
2022/04/03 01:29:58;;;;;;;38.85;19.00;;;-0.10;99.90;;;;;;4913245;29;20091;-74
2022/04/03 01:32:25;;;;;;;25.05;12.60;;;-0.20;99.90;;;;;;4918641;29;20040;-74
2022/04/03 01:34:52;;;;;;;27.85;13.93;;;-0.20;99.90;;;;;;4918416;29;20044;-74
2022/04/03 01:37:19;;;;;;;28.65;15.38;;;-0.20;99.90;;;;;;4918651;29;20091;-74
2022/04/03 01:39:45;;;;;;;36.72;19.48;;;-0.20;99.90;;;;;;4916318;29;20120;-75
2022/04/03 01:42:12;;;;;;;29.17;14.20;;;-0.20;99.90;;;;;;4918390;29;20051;-74
2022/04/03 01:44:39;;;;;;;36.58;18.70;;;-0.20;99.90;;;;;;4918399;29;20060;-74
2022/04/03 01:47:05;;;;;;;39.13;20.27;;;-0.20;99.90;;;;;;4911186;29;20457;-75
2022/04/03 01:49:32;;;;;;;39.00;19.27;;;-0.30;99.90;;;;;;4917932;29;20096;-74
2022/04/03 01:51:59;;;;;;;35.78;19.60;;;-0.20;99.90;;;;;;4918508;29;20044;-75
2022/04/03 01:54:25;;;;;;;28.92;14.55;;;-0.20;99.90;;;;;;4918083;29;20076;-74
2022/04/03 01:56:52;;;;;;;29.67;14.30;;;-0.30;99.90;;;;;;4912251;29;20051;-74
2022/04/03 01:59:19;;;;;;;27.05;13.52;;;-0.30;99.90;;;;;;4917678;29;20056;-74
2022/04/03 02:01:46;;;;;;;27.63;14.88;;;-0.30;99.90;;;;;;4918175;29;20497;-74
2022/04/03 02:04:13;;;;;;;39.42;19.10;;;-0.30;99.90;;;;;;4916305;29;20064;-75
2022/04/03 02:06:41;;;;;;;39.85;19.73;;;-0.30;99.90;;;;;;4911957;29;20048;-74
2022/04/03 02:09:10;;;;;;;32.95;17.48;;;-0.40;99.90;;;;;;4917812;29;20063;-75
2022/04/03 02:11:38;;;;;;;36.33;18.85;;;-0.40;99.90;;;;;;4917647;29;20076;-75
2022/04/03 02:14:05;;;;;;;36.38;19.48;;;-0.40;99.90;;;;;;4916922;29;20044;-75
2022/04/03 02:16:31;;;;;;;39.25;19.30;;;-0.40;99.90;;;;;;4918028;29;20063;-75
2022/04/03 02:18:58;;;;;;;39.80;19.98;;;-0.30;99.90;;;;;;4917827;29;20123;-75
2022/04/03 02:21:25;;;;;;;40.50;19.23;;;-0.30;99.90;;;;;;4917441;29;20108;-75
2022/04/03 02:23:52;;;;;;;34.60;18.92;;;-0.30;99.90;;;;;;4916339;29;20044;-75
2022/04/03 02:26:19;;;;;;;36.53;19.08;;;-0.20;99.90;;;;;;4917739;29;20048;-75
2022/04/03 02:28:46;;;;;;;38.00;19.63;;;-0.30;99.90;;;;;;4917818;29;20060;-75
2022/04/03 02:31:14;;;;;;;40.95;18.90;;;-0.10;99.90;;;;;;4917277;29;20048;-75
2022/04/03 02:33:41;;;;;;;41.25;21.35;;;-0.30;99.90;;;;;;4911613;29;20047;-75
2022/04/03 02:36:07;;;;;;;27.35;13.93;;;-0.20;99.90;;;;;;4917468;29;20047;-74
2022/04/03 02:38:34;;;;;;;27.85;14.15;;;-0.20;99.90;;;;;;4916583;29;20040;-75
2022/04/03 02:41:01;;;;;;;41.88;19.88;;;-0.20;99.90;;;;;;4915003;29;20048;-75
2022/04/03 02:43:28;;;;;;;33.28;15.60;;;-0.20;99.90;;;;;;4909679;29;20063;-74
2022/04/03 02:45:54;;;;;;;27.63;13.32;;;-0.20;99.90;;;;;;4917486;29;20103;-75
2022/04/03 02:48:22;;;;;;;39.88;19.95;;;-0.20;99.90;;;;;;4917248;29;20803;-74
2022/04/03 02:50:48;;;;;;;;;;;-0.20;99.90;;;;;;4904332;29;20507;-74
2022/04/03 02:53:15;;;;;;;39.65;19.65;;;-0.20;99.90;;;;;;4900180;29;20403;-75
2022/04/03 02:55:42;;;;;;;25.73;13.48;;;-0.20;99.90;;;;;;4917155;29;20044;-74
2022/04/03 02:58:09;;;;;;;40.70;20.13;;;-0.20;99.90;;;;;;4910932;29;20048;-75
2022/04/03 03:00:35;;;;;;;40.17;19.25;;;-0.20;99.90;;;;;;4916582;29;20099;-75
2022/04/03 03:03:05;;;;;;;38.15;19.15;;;-0.20;99.90;;;;;;4917213;29;20040;-74
2022/04/03 03:05:32;;;;;;;44.20;19.90;;;-0.20;99.90;;;;;;4915415;29;20044;-74
2022/04/03 03:07:59;;;;;;;41.30;20.52;;;-0.20;99.90;;;;;;4916747;29;20055;-74
2022/04/03 03:10:26;;;;;;;40.03;19.90;;;-0.20;99.90;;;;;;4916493;29;20044;-74
2022/04/03 03:12:53;;;;;;;42.53;20.50;;;-0.20;99.90;;;;;;4915985;29;20100;-74
2022/04/03 03:15:21;;;;;;;32.70;15.30;;;-0.20;99.90;;;;;;4915721;29;20111;-74
2022/04/03 03:17:49;;;;;;;43.83;20.55;;;-0.20;99.90;;;;;;4916734;29;20084;-75
2022/04/03 03:20:19;;;;;;;42.08;20.90;;;-0.20;99.90;;;;;;4916474;29;20122;-74
2022/04/03 03:22:46;;;;;;;44.88;21.33;;;-0.20;99.90;;;;;;4911469;29;20052;-74
2022/04/03 03:25:13;;;;;;;47.63;23.17;;;-0.20;99.90;;;;;;4914704;29;20111;-74
2022/04/03 03:27:40;;;;;;;43.05;22.17;;;-0.20;99.90;;;;;;4916555;29;20571;-74
2022/04/03 03:30:08;;;;;;;32.67;16.40;;;-0.20;99.90;;;;;;4916231;29;20051;-74
2022/04/03 03:32:36;;;;;;;50.90;21.27;;;-0.20;99.90;;;;;;4912677;29;20719;-74
2022/04/03 03:35:04;;;;;;;44.45;21.02;;;-0.30;99.90;;;;;;4916415;29;20068;-75
2022/04/03 03:37:31;;;;;;;44.55;21.35;;;-0.30;99.90;;;;;;4916523;29;20036;-74
2022/04/03 03:39:58;;;;;;;48.22;23.00;;;-0.30;99.90;;;;;;4909620;29;20052;-74
2022/04/03 03:42:24;;;;;;;46.90;23.10;;;-0.30;99.90;;;;;;4916287;29;20108;-74
2022/04/03 03:44:51;;;;;;;46.63;23.35;;;-0.30;99.90;;;;;;4916065;29;20044;-74
2022/04/03 03:47:20;;;;;;;44.03;22.45;;;-0.20;99.90;;;;;;4916383;29;20501;-74
2022/04/03 03:49:47;;;;;;;45.58;21.77;;;-0.30;99.90;;;;;;4907704;29;20046;-74
2022/04/03 03:52:14;;;;;;;44.88;22.42;;;-0.20;99.90;;;;;;4916118;29;20048;-74
2022/04/03 03:54:41;;;;;;;43.50;20.65;;;-0.20;99.90;;;;;;4916185;29;20044;-74
2022/04/03 03:57:09;;;;;;;43.63;20.77;;;-0.20;99.90;;;;;;4912561;29;20036;-74
2022/04/03 03:59:35;;;;;;;;;;;-0.20;99.90;;;;;;4899407;29;20404;-74
2022/04/03 04:02:02;;;;;;;46.30;22.08;;;-0.20;99.90;;;;;;4916004;29;19927;-74
2022/04/03 04:04:29;;;;;;;;;;;-0.20;99.90;;;;;;4916515;29;20052;-74
2022/04/03 04:06:57;;;;;;;44.88;21.27;;;-0.20;99.90;;;;;;4908529;29;19927;-74
2022/04/03 04:09:24;;;;;;;48.03;21.48;;;-0.20;99.90;;;;;;4915575;29;20048;-74
2022/04/03 04:11:51;;;;;;;48.30;21.38;;;-0.10;99.90;;;;;;4915873;29;20493;-74
2022/04/03 04:14:18;;;;;;;32.78;15.77;;;-0.10;99.90;;;;;;4928470;23;20052;-69
2022/04/03 04:16:46;;;;;;;44.53;21.60;;;-0.10;99.90;;;;;;4909796;29;20043;-67
2022/04/03 04:19:15;;;;;;;44.45;21.85;;;-0.10;99.90;;;;;;4915146;29;20086;-67
2022/04/03 04:21:42;;;;;;;41.50;21.52;;;0.00;99.90;;;;;;4915405;29;20048;-67
2022/04/03 04:24:10;;;;;;;48.25;21.92;;;-0.10;99.90;;;;;;4913512;29;20104;-67
2022/04/03 04:26:37;;;;;;;41.58;20.48;;;-0.10;99.90;;;;;;4915079;29;20075;-69
2022/04/03 04:29:04;;;;;;;45.90;20.95;;;0.00;99.90;;;;;;4907088;29;20165;-67
2022/04/03 04:31:31;;;;;;;41.83;20.65;;;0.00;99.90;;;;;;4915095;29;20048;-69
2022/04/03 04:33:58;;;;;;;45.92;22.38;;;-0.10;99.90;;;;;;4915501;29;20126;-67
2022/04/03 04:36:26;;;;;;;43.80;21.42;;;-0.10;99.90;;;;;;4913841;29;20039;-67
2022/04/03 04:38:58;;;;;;;47.13;21.77;;;-0.10;99.90;;;;;;4915184;29;20062;-67
2022/04/03 04:41:25;;;;;;;42.83;21.83;;;-0.10;99.90;;;;;;4913827;29;20047;-67
2022/04/03 04:43:52;;;;;;;42.67;21.95;;;-0.10;99.90;;;;;;4910794;29;20051;-67
2022/04/03 04:46:20;;;;;;;39.13;20.38;;;-0.10;99.90;;;;;;4925587;29;20401;-67
2022/04/03 04:48:48;;;;;;;41.47;19.90;;;-0.10;99.90;;;;;;4934422;29;20381;-67
2022/04/03 04:51:16;;;;;;;38.20;19.58;;;-0.20;99.90;;;;;;4919210;29;20370;-67
2022/04/03 04:53:43;;;;;;;40.35;19.67;;;-0.10;99.90;;;;;;4915268;29;20051;-68
2022/04/03 04:56:12;;;;;;;37.92;19.25;;;-0.10;99.90;;;;;;4915090;29;20053;-67
2022/04/03 04:58:39;;;;;;;43.33;20.65;;;-0.10;99.90;;;;;;4898008;29;20048;-67
2022/04/03 05:01:06;;;;;;;37.05;19.70;;;-0.10;99.90;;;;;;4915683;29;20060;-68
2022/04/03 05:03:33;;;;;;;43.50;20.40;;;-0.10;99.90;;;;;;4919104;29;20565;-67
2022/04/03 05:06:00;;;;;;;27.60;13.52;;;-0.10;99.90;;;;;;4916129;29;20048;-68
2022/04/03 05:08:26;;;;;;;27.20;13.57;;;-0.10;99.90;;;;;;4918960;29;20065;-67
2022/04/03 05:10:53;;;;;;;38.47;19.92;;;-0.10;99.90;;;;;;4918546;29;20408;-67
2022/04/03 05:13:25;;;;;;;44.10;19.92;;;-0.10;99.90;;;;;;4919137;29;20040;-67
2022/04/03 05:15:52;;;;;;;43.28;20.13;;;-0.10;99.90;;;;;;4913598;29;20044;-67
2022/04/03 05:18:20;;;;;;;37.40;18.67;;;0.00;99.90;;;;;;4917863;29;20044;-67
2022/04/03 05:20:49;;;;;;;41.45;19.58;;;0.00;99.90;;;;;;4918534;29;20520;-67
2022/04/03 05:23:16;;;;;;;36.75;18.63;;;0.00;99.90;;;;;;4918801;29;20099;-67
2022/04/03 05:25:43;;;;;;;38.53;18.30;;;0.00;99.90;;;;;;4914582;29;20153;-68
2022/04/03 05:28:10;;;;;;;34.70;18.25;;;0.00;99.90;;;;;;4901990;29;20518;-67
2022/04/03 05:30:36;;;;;;;32.05;15.05;;;0.00;99.90;;;;;;4918162;29;20496;-68
2022/04/03 05:33:03;;;;;;;35.83;17.52;;;0.00;99.90;;;;;;4918808;29;20116;-67
2022/04/03 05:35:30;;;;;;;33.15;16.90;;;0.00;99.90;;;;;;4914353;29;20047;-68
2022/04/03 05:37:57;;;;;;;35.03;16.45;;;0.10;99.90;;;;;;4918169;29;20048;-68
2022/04/03 05:40:24;;;;;;;33.17;16.80;;;0.10;99.90;;;;;;4918079;29;20505;-68
2022/04/03 05:42:50;;;;;;;34.55;16.02;;;0.10;99.90;;;;;;4918626;29;20048;-67
2022/04/03 05:45:18;;;;;;;30.73;15.40;;;0.10;99.90;;;;;;4913269;29;20056;-68
2022/04/03 05:47:44;;;;;;;33.58;17.23;;;0.10;99.90;;;;;;4918494;29;20088;-67
2022/04/03 05:50:12;;;;;;;31.58;15.68;;;0.10;99.90;;;;;;4918059;29;20044;-68
2022/04/03 05:52:47;;;;;;;34.83;17.40;;;0.10;99.90;;;;;;4918258;29;20048;-68
2022/04/03 05:55:16;;;;;;;37.13;18.02;;;0.10;99.90;;;;;;4916324;29;20488;-67
2022/04/03 05:57:45;;;;;;;34.05;17.33;;;0.10;99.90;;;;;;4918443;29;20048;-68
2022/04/03 06:00:13;;;;;;;38.17;17.00;;;0.00;99.90;;;;;;4917679;29;20099;-68
2022/04/03 06:02:46;;;;;;;35.85;18.40;;;0.00;99.90;;;;;;4916052;29;20048;-68
2022/04/03 06:05:13;;;;;;;35.58;17.80;;;0.10;99.90;;;;;;4917887;29;20489;-68
2022/04/03 06:07:40;;;;;;;39.83;17.55;;;0.20;99.90;;;;;;4918212;29;20044;-68
2022/04/03 06:10:07;;;;;;;42.17;17.80;;;0.20;99.90;;;;;;4917610;29;20048;-68
2022/04/03 06:12:34;;;;;;;34.33;17.65;;;0.30;99.90;;;;;;4915112;29;20408;-68
2022/04/03 06:15:01;;;;;;;32.97;17.27;;;0.40;99.90;;;;;;4917780;29;20487;-68
2022/04/03 06:17:28;;;;;;;33.58;16.40;;;0.40;99.90;;;;;;4918088;29;20036;-68
2022/04/03 06:19:54;;;;;;;35.17;16.77;;;0.50;99.90;;;;;;4917546;29;20040;-68
2022/04/03 06:22:22;;;;;;;33.97;17.70;;;0.50;99.90;;;;;;4914500;29;20052;-68
2022/04/03 06:24:49;;;;;;;36.38;17.23;;;0.60;99.90;;;;;;4917637;29;20051;-68
2022/04/03 06:27:15;;;;;;;33.13;16.30;;;0.60;99.90;;;;;;4917726;29;20072;-68
2022/04/03 06:29:42;;;;;;;33.78;17.35;;;0.50;99.90;;;;;;4914961;29;20052;-67
2022/04/03 06:32:09;;;;;;;34.28;17.10;;;0.50;99.90;;;;;;4914798;29;20051;-68
2022/04/03 06:34:36;;;;;;;32.75;17.23;;;0.50;99.90;;;;;;4900828;29;20036;-68
2022/04/03 06:37:03;;;;;;;23.05;12.60;;;0.50;99.90;;;;;;4917554;29;20096;-68
2022/04/03 06:39:29;;;;;;;33.97;16.80;;;0.60;99.90;;;;;;4914870;29;20408;-68
2022/04/03 06:41:56;;;;;;;33.20;17.20;;;0.60;99.90;;;;;;4913290;29;20051;-68
2022/04/03 06:44:23;;;;;;;23.08;12.32;;;0.70;99.90;;;;;;4916963;29;20070;-68
2022/04/03 06:46:50;;;;;;;38.20;17.10;;;0.80;99.90;;;;;;4917248;29;20078;-68
2022/04/03 06:49:17;;;;;;;35.47;16.77;;;0.90;99.90;;;;;;4914006;29;20075;-68
2022/04/03 06:51:43;;;;;;;28.30;13.30;;;1.10;99.90;;;;;;4916955;29;20052;-67
2022/04/03 06:54:10;;;;;;;35.35;16.48;;;1.20;99.90;;;;;;4917253;29;20055;-68
2022/04/03 06:56:37;;;;;;;31.27;16.10;;;1.20;99.90;;;;;;4914135;29;20441;-68
2022/04/03 06:59:04;;;;;;;24.00;12.05;;;1.30;99.90;;;;;;4916613;29;20047;-68
2022/04/03 07:01:31;;;;;;;29.42;15.77;;;1.30;99.90;;;;;;4916430;29;20509;-68
2022/04/03 07:03:57;;;;;;;29.33;15.23;;;1.30;99.90;;;;;;4916984;29;20494;-67
2022/04/03 07:06:24;;;;;;;25.23;12.93;;;1.30;99.90;;;;;;4908995;29;20044;-69
2022/04/03 07:08:51;;;;;;;23.27;12.07;;;1.30;99.90;;;;;;4916832;29;20040;-68
2022/04/03 07:11:17;;;;;;;21.85;12.10;;;1.40;99.90;;;;;;4899583;29;20048;-68
2022/04/03 07:13:44;;;;;;;29.08;16.05;;;1.40;99.90;;;;;;4916980;29;20104;-68
2022/04/03 07:16:11;;;;;;;27.73;15.80;;;1.50;99.90;;;;;;4909535;29;20099;-68
2022/04/03 07:18:38;;;;;;;16.88;8.88;;;1.50;99.90;;;;;;4916818;29;20135;-68
2022/04/03 07:21:04;;;;;;;24.77;14.02;;;1.60;99.90;;;;;;4916359;29;20059;-68
2022/04/03 07:23:31;;;;;;;27.80;14.40;;;1.70;99.90;;;;;;4913811;29;20493;-68
2022/04/03 07:25:58;;;;;;;26.08;13.85;;;1.80;99.90;;;;;;4915897;29;20072;-68
2022/04/03 07:28:24;;;;;;;29.02;14.20;;;1.90;99.90;;;;;;4916219;29;20420;-68
2022/04/03 07:30:51;;;;;;;17.33;10.35;;;2.00;99.90;;;;;;4915763;29;20040;-68
2022/04/03 07:33:20;;;;;;;17.73;9.73;;;2.10;99.90;;;;;;4913022;29;20048;-67
2022/04/03 07:35:47;;;;;;;27.95;13.93;;;2.20;99.90;;;;;;4915915;29;20115;-67
2022/04/03 07:38:14;;;;;;;24.40;13.55;;;2.20;99.90;;;;;;4915709;29;20048;-67
2022/04/03 07:40:42;;;;;;;25.02;14.02;;;2.10;99.90;;;;;;4915645;29;20405;-67
2022/04/03 07:43:21;;;;;;;28.98;14.55;;;2.20;99.90;;;;;;4908519;29;20044;-67
2022/04/03 07:45:49;;;;;;;23.58;14.10;;;2.20;99.90;;;;;;4916115;29;20059;-67
2022/04/03 07:48:16;;;;;;;23.90;14.63;;;2.20;99.90;;;;;;4915940;29;20040;-67
2022/04/03 07:50:43;;;;;;;;;;;2.20;99.90;;;;;;4912149;29;20116;-67
2022/04/03 07:53:10;;;;;;;26.30;15.57;;;2.20;99.90;;;;;;4913844;29;19993;-67
2022/04/03 07:55:37;;;;;;;20.70;11.57;;;2.30;99.90;;;;;;4915994;29;20059;-67
2022/04/03 07:58:06;;;;;;;27.25;13.90;;;2.40;99.90;;;;;;4916134;29;20051;-66
2022/04/03 08:00:33;;;;;;;26.20;14.25;;;2.50;99.90;;;;;;4914015;29;20052;-67
2022/04/03 08:03:00;;;;;;;17.88;10.57;;;2.70;99.90;;;;;;4916016;29;20055;-67
2022/04/03 08:05:26;;;;;;;26.58;13.35;;;2.80;99.90;;;;;;4916015;29;20048;-66
2022/04/03 08:07:55;;;;;;;24.73;13.77;;;2.80;99.90;;;;;;4915918;29;20059;-67
2022/04/03 08:10:22;;;;;;;25.58;13.25;;;2.90;99.90;;;;;;4912338;29;20056;-66
2022/04/03 08:12:50;;;;;;;21.60;12.90;;;2.90;99.90;;;;;;4915662;29;20095;-66
2022/04/03 08:15:19;;;;;;;23.23;12.23;;;2.90;99.90;;;;;;4915638;29;20099;-67
2022/04/03 08:17:46;;;;;;;22.42;13.30;;;2.90;99.90;;;;;;4910208;29;20048;-66
2022/04/03 08:20:17;;;;;;;25.48;12.82;;;2.80;99.90;;;;;;4913349;29;20036;-66
2022/04/03 08:22:46;;;;;;;24.08;13.30;;;2.70;99.90;;;;;;4915826;29;20056;-66
2022/04/03 08:25:13;;;;;;;23.77;13.57;;;2.80;99.90;;;;;;4915408;29;20416;-67
2022/04/03 08:27:49;;;;;;;21.20;12.68;;;2.60;99.90;;;;;;4909919;29;20096;-65
2022/04/03 08:30:20;;;;;;;23.88;13.05;;;2.60;99.90;;;;;;4915172;29;20055;-64
2022/04/03 08:32:47;;;;;;;23.27;13.73;;;2.60;99.90;;;;;;4915531;29;20564;-65
2022/04/03 08:35:15;;;;;;;22.60;12.77;;;2.70;99.90;;;;;;4915073;29;20044;-65
2022/04/03 08:37:42;;;;;;;22.50;13.40;;;2.80;99.90;;;;;;4908795;29;20087;-66
2022/04/03 08:40:17;;;;;;;22.13;12.23;;;2.80;99.90;;;;;;4915063;29;20056;-66
2022/04/03 08:42:44;;;;;;;23.70;12.65;;;2.90;99.90;;;;;;4915652;29;20044;-66
2022/04/03 08:45:11;;;;;;;26.20;13.95;;;3.10;99.90;;;;;;4912761;29;20615;-65
2022/04/03 08:47:44;;;;;;;18.70;11.25;;;3.20;99.90;;;;;;4915176;29;20111;-67
2022/04/03 08:50:13;;;;;;;18.73;11.02;;;3.40;99.90;;;;;;4915110;29;20056;-66
2022/04/03 08:52:43;;;;;;;18.90;10.73;;;3.60;99.90;;;;;;4913400;29;20509;-67
2022/04/03 08:55:10;;;;;;;19.70;11.50;;;3.70;99.90;;;;;;4914620;29;20342;-67
2022/04/03 08:57:36;;;;;;;19.73;11.57;;;3.60;99.90;;;;;;4914751;29;20052;-67
2022/04/03 09:00:05;;;;;;;22.42;12.35;;;3.50;99.90;;;;;;4914532;29;20048;-67
2022/04/03 09:02:32;;;;;;;19.48;11.10;;;3.50;99.90;;;;;;4913619;29;20044;-67
2022/04/03 09:04:59;;;;;;;21.33;11.18;;;3.50;99.90;;;;;;4915127;29;20036;-67
2022/04/03 09:07:26;;;;;;;18.80;11.70;;;3.60;99.90;;;;;;4914741;29;20629;-67
2022/04/03 09:09:58;;;;;;;18.40;10.32;;;3.70;99.90;;;;;;4914529;29;20048;-67
2022/04/03 09:12:26;;;;;;;18.77;10.85;;;3.90;99.90;;;;;;4891480;29;20413;-67
2022/04/03 09:14:54;;;;;;;17.05;10.50;;;3.80;99.90;;;;;;4910986;29;20044;-66
2022/04/03 09:17:40;;;;;;;20.48;11.20;;;3.90;99.90;;;;;;4914750;29;20036;-67
2022/04/03 09:20:25;;;;;;;19.75;10.93;;;3.90;99.90;;;;;;4914759;29;20126;-67
2022/04/03 09:22:54;;;;;;;17.77;11.13;;;3.80;99.90;;;;;;4912905;29;20052;-67
2022/04/03 09:25:32;;;;;;;18.98;10.82;;;3.80;99.90;;;;;;4914558;29;20496;-67
2022/04/03 09:28:09;;;;;;;20.10;10.82;;;3.80;99.90;;;;;;4915106;29;20056;-67
2022/04/03 09:30:43;;;;;;;18.95;11.40;;;3.60;99.90;;;;;;4914708;29;20055;-67
2022/04/03 09:33:11;;;;;;;19.92;10.93;;;3.70;99.90;;;;;;4911456;29;20068;-67
2022/04/03 09:35:59;;;;;;;19.35;11.32;;;3.70;99.90;;;;;;4908754;29;20511;-67
2022/04/03 09:38:27;;;;;;;21.50;11.70;;;3.50;99.90;;;;;;4905270;29;20053;-67
2022/04/03 09:40:56;;;;;;;20.35;12.02;;;3.40;99.90;;;;;;4910135;29;20124;-67
2022/04/03 09:43:38;;;;;;;20.70;11.45;;;3.30;99.90;;;;;;4907139;29;20152;-67
2022/04/03 09:46:10;;;;;;;26.50;13.20;;;3.30;99.90;;;;;;4896758;29;20390;-67
2022/04/03 09:48:43;;;;;;;24.52;12.82;;;3.20;99.90;;;;;;4912809;29;20047;-67
2022/04/03 09:51:19;;;;;;;22.95;12.52;;;3.10;99.90;;;;;;4909001;29;20057;-67
2022/04/03 09:53:52;;;;;;;26.58;12.15;;;2.90;99.90;;;;;;4915117;29;20047;-67
2022/04/03 09:56:24;;;;;;;22.73;13.13;;;2.80;99.90;;;;;;4909832;29;20055;-67
2022/04/03 09:58:51;;;;;;;23.38;13.43;;;2.70;99.90;;;;;;4917192;29;20047;-67
2022/04/03 10:01:30;;;;;;;18.83;9.95;;;2.60;99.90;;;;;;4916951;29;20044;-67
2022/04/03 10:04:00;;;;;;;23.85;12.88;;;2.70;99.90;;;;;;4916328;29;20055;-67
2022/04/03 10:06:27;;;;;;;22.15;12.82;;;2.60;99.90;;;;;;4914832;29;20278;-67
2022/04/03 10:08:54;;;;;;;24.40;12.88;;;2.50;99.90;;;;;;4917132;29;20418;-67
2022/04/03 10:11:21;;;;;;;26.00;13.50;;;2.50;99.90;;;;;;4916520;29;20048;-67
2022/04/03 10:13:49;;;;;;;27.83;14.00;;;2.50;99.90;;;;;;4917014;29;20044;-66
2022/04/03 10:20:14;;;;;;;24.02;12.63;;;2.40;99.90;;;;;;4906958;29;20469;-68
2022/04/03 10:22:45;;;;;;;24.23;13.95;;;2.40;99.90;;;;;;4930675;29;20050;-69
2022/04/03 10:25:24;;;;;;;23.50;13.25;;;2.40;99.90;;;;;;4924367;29;20048;-69
2022/04/03 10:27:52;;;;;;;25.35;13.10;;;2.40;99.90;;;;;;4914623;29;20059;-69
2022/04/03 10:30:46;;;;;;;24.17;12.77;;;2.40;99.90;;;;;;4915132;29;20047;-69
2022/04/03 10:33:20;;;;;;;23.00;12.75;;;2.40;99.90;;;;;;4911393;29;20064;-71
2022/04/03 10:35:50;;;;;;;25.88;13.68;;;2.40;99.90;;;;;;4915578;29;20107;-68
2022/04/03 10:38:19;;;;;;;27.50;13.52;;;2.40;99.90;;;;;;4925985;29;20052;-69
2022/04/03 10:40:59;;;;;;;25.00;12.93;;;2.40;99.90;;;;;;4928057;29;20048;-68
2022/04/03 10:43:29;;;;;;;21.58;12.38;;;2.40;99.90;;;;;;4916524;29;20060;-68
2022/04/03 10:45:56;;;;;;;23.80;12.63;;;2.50;99.90;;;;;;4910102;29;20100;-69
2022/04/03 10:48:26;;;;;;;17.02;10.70;;;2.50;99.90;;;;;;4911205;29;20123;-69
2022/04/03 10:50:56;;;;;;;21.25;11.68;;;2.60;99.90;;;;;;4912071;29;20051;-69
2022/04/03 10:53:31;;;;;;;21.40;12.20;;;2.70;99.90;;;;;;4917219;29;20051;-68
2022/04/03 10:55:59;;;;;;;23.90;12.55;;;2.90;99.90;;;;;;4917572;29;20437;-69
2022/04/03 10:58:38;;;;;;;22.20;12.32;;;3.00;99.90;;;;;;4915834;29;20032;-71
2022/04/03 11:01:05;;;;;;;22.08;12.60;;;3.20;99.90;;;;;;4916371;29;20048;-68
2022/04/03 11:03:33;;;;;;;20.85;11.50;;;3.00;99.90;;;;;;4917211;29;20099;-69
2022/04/03 11:06:21;;;;;;;22.35;12.43;;;3.10;99.90;;;;;;4917121;29;20496;-69
2022/04/03 11:08:57;;;;;;;22.42;13.55;;;3.10;99.90;;;;;;4913896;29;20052;-68
2022/04/03 11:11:49;;;;;;;26.27;13.40;;;3.30;99.90;;;;;;4916317;29;20063;-69
2022/04/03 11:14:52;;;;;;;24.08;13.73;;;3.30;99.90;;;;;;4916715;29;20051;-69
2022/04/03 11:17:48;;;;;;;25.92;12.88;;;3.30;99.90;;;;;;4912866;29;20108;-70
2022/04/03 11:20:42;;;;;;;23.67;13.57;;;3.20;99.90;;;;;;4916018;29;20048;-71
2022/04/03 11:23:14;;;;;;;23.45;12.85;;;3.30;99.90;;;;;;4899875;29;20047;-68
2022/04/03 11:25:42;;;;;;;25.10;13.45;;;3.40;99.90;;;;;;4891678;29;20608;-68
2022/04/03 11:28:11;;;;;;;24.38;13.05;;;3.40;99.90;;;;;;4916363;29;20103;-68
2022/04/03 11:30:37;;;;;;;30.08;15.30;;;3.50;99.90;;;;;;4915799;29;20040;-68
2022/04/03 11:33:06;;;;;;;24.55;13.77;;;3.60;99.90;;;;;;4903194;29;20068;-69
2022/04/03 11:35:40;;;;;;;27.13;13.45;;;3.40;99.90;;;;;;4915138;29;20044;-69
2022/04/03 11:38:09;;;;;;;24.83;13.73;;;3.40;99.90;;;;;;4915206;29;20071;-71
2022/04/03 11:40:38;;;;;;;21.00;12.10;;;3.40;99.90;;;;;;4915041;29;20052;-68
2022/04/03 11:43:10;;;;;;;22.83;12.38;;;3.30;99.90;;;;;;4914793;29;20055;-69
2022/04/03 11:45:37;;;;;;;29.33;13.18;;;3.20;99.90;;;;;;4911851;29;20536;-68
2022/04/03 11:48:21;;;;;;;22.42;12.23;;;3.20;99.90;;;;;;4915479;29;20096;-71
2022/04/03 11:50:51;;;;;;;26.40;13.43;;;3.20;99.90;;;;;;4910534;29;20476;-71
2022/04/03 11:53:18;;;;;;;22.80;13.05;;;3.30;99.90;;;;;;4915166;29;20500;-70
2022/04/03 11:55:45;;;;;;;24.63;13.63;;;3.30;99.90;;;;;;4912590;29;20046;-71
2022/04/03 11:58:13;;;;;;;24.27;13.57;;;3.20;99.90;;;;;;4915330;29;20135;-71
2022/04/03 12:00:46;;;;;;;;;;;3.10;99.90;;;;;;4913807;29;20558;-67
2022/04/03 12:03:24;;;;;;;26.48;12.95;;;3.20;99.90;;;;;;4915329;29;20295;-71
2022/04/03 12:05:51;;;;;;;22.80;13.20;;;3.10;99.90;;;;;;4913267;29;20040;-71
2022/04/03 12:08:18;;;;;;;24.15;13.25;;;3.10;99.90;;;;;;4914934;29;20111;-71
2022/04/03 12:10:45;;;;;;;14.52;8.43;;;2.90;99.90;;;;;;4912456;29;20047;-70
2022/04/03 12:13:17;;;;;;;19.45;9.10;;;2.90;99.90;;;;;;4914874;29;20158;-70
2022/04/03 12:15:44;;;;;;;18.92;10.68;;;2.80;99.90;;;;;;4915123;29;20587;-70
2022/04/03 12:18:24;;;;;;;19.98;9.90;;;2.90;99.90;;;;;;4914194;29;20051;-71
2022/04/03 12:20:52;;;;;;;20.13;10.18;;;3.00;99.90;;;;;;4914079;29;20509;-70
2022/04/03 12:23:19;;;;;;;19.23;10.40;;;3.10;99.90;;;;;;4914747;29;20107;-71
2022/04/03 12:25:46;;;;;;;18.83;10.00;;;3.10;99.90;;;;;;4914875;29;20433;-70
2022/04/03 12:28:13;;;;;;;14.20;7.20;;;3.30;99.90;;;;;;4913233;29;20036;-71
2022/04/03 12:30:40;;;;;;;18.38;10.73;;;3.20;99.90;;;;;;4914189;29;20492;-71
2022/04/03 12:33:07;;;;;;;21.08;10.90;;;3.20;99.90;;;;;;4914431;29;20044;-70
2022/04/03 12:35:34;;;;;;;20.85;11.45;;;3.20;99.90;;;;;;4914228;29;20424;-70
2022/04/03 12:38:20;;;;;;;17.17;10.43;;;3.40;99.90;;;;;;4914443;29;20047;-71
2022/04/03 12:40:48;;;;;;;19.75;11.35;;;3.40;99.90;;;;;;4914360;29;20095;-71
2022/04/03 12:43:15;;;;;;;19.35;10.70;;;4.20;99.90;;;;;;4914306;29;20123;-71
2022/04/03 12:45:42;;;;;;;19.95;11.18;;;3.80;99.90;;;;;;4910833;29;20076;-71
2022/04/03 12:48:09;;;;;;;20.30;10.40;;;3.90;99.90;;;;;;4914502;29;20489;-71